Time;durP1;ratioP1;P1;durP2;ratioP2;P2;SDS_P1;SDS_P2;PMS_P1;PMS_P2;Temp;Humidity;BMP_temperature;BMP_pressure;BME280_temperature;BME280_humidity;BME280_pressure;Samples;Min_cycle;Max_cycle;Signal;HPM_P1;HPM_P2
2022/08/15 00:00:41;;;;;;;2.00;1.30;;;26.80;53.00;;;;;;10862942;32;20051;-71
2022/08/15 00:06:45;;;;;;;2.33;1.85;;;26.60;52.90;;;;;;10862725;32;20008;-71
2022/08/15 00:12:48;;;;;;;2.12;1.25;;;26.60;52.80;;;;;;10862415;32;20046;-71
2022/08/15 00:18:51;;;;;;;4.32;1.58;;;26.60;52.60;;;;;;10862309;32;20054;-71
2022/08/15 00:24:53;;;;;;;5.82;1.45;;;26.70;52.70;;;;;;10862052;32;20062;-71
2022/08/15 00:30:55;;;;;;;2.22;1.40;;;26.70;52.60;;;;;;10857893;32;20046;-71
2022/08/15 00:36:59;;;;;;;2.22;1.58;;;26.70;52.80;;;;;;10861955;32;20058;-71
2022/08/15 00:43:01;;;;;;;3.30;1.75;;;26.70;52.70;;;;;;10861785;32;20008;-71
2022/08/15 00:49:04;;;;;;;3.12;1.87;;;26.70;52.60;;;;;;10848352;32;20024;-71
2022/08/15 00:55:13;;;;;;;1.62;1.27;;;26.60;52.60;;;;;;10861455;32;20023;-71
2022/08/15 01:01:15;;;;;;;2.97;1.90;;;26.60;52.60;;;;;;10867208;32;20050;-71
2022/08/15 01:07:19;;;;;;;4.55;1.73;;;26.60;52.60;;;;;;10867934;32;20016;-71
2022/08/15 01:13:22;;;;;;;5.00;1.87;;;26.60;52.60;;;;;;10867716;32;20348;-71
2022/08/15 01:19:30;;;;;;;3.90;2.00;;;26.60;52.60;;;;;;10854337;32;20336;-71
2022/08/15 01:25:48;;;;;;;4.85;2.00;;;26.60;52.80;;;;;;10867399;32;20020;-71
2022/08/15 01:31:51;;;;;;;2.55;1.83;;;26.70;52.70;;;;;;10867190;32;20023;-71
2022/08/15 01:37:54;;;;;;;2.30;1.50;;;26.60;53.10;;;;;;10866937;32;20035;-71
2022/08/15 01:44:33;;;;;;;1.95;1.30;;;26.60;53.40;;;;;;10866718;32;20373;-71
2022/08/15 01:50:49;;;;;;;3.53;2.17;;;26.50;53.20;;;;;;10865415;32;20066;-71
2022/08/15 01:56:51;;;;;;;2.87;2.10;;;26.40;53.60;;;;;;10866391;32;20019;-71
2022/08/15 02:02:55;;;;;;;3.35;2.22;;;26.50;53.70;;;;;;10866332;32;20042;-71
2022/08/15 02:09:00;;;;;;;2.87;2.03;;;26.50;53.60;;;;;;10865210;32;20024;-71
2022/08/15 02:15:13;;;;;;;2.03;1.62;;;26.50;53.80;;;;;;10865979;32;20309;-71
2022/08/15 02:21:16;;;;;;;3.03;2.12;;;26.40;54.20;;;;;;10865709;32;20043;-71
2022/08/15 02:27:18;;;;;;;2.83;1.80;;;26.40;54.20;;;;;;10865571;32;20339;-71
2022/08/15 02:33:21;;;;;;;2.85;1.87;;;26.40;54.20;;;;;;10865368;32;20028;-71
2022/08/15 02:39:24;;;;;;;2.12;1.65;;;26.30;54.50;;;;;;10865281;32;20316;-71
2022/08/15 02:45:29;;;;;;;4.25;2.00;;;26.30;54.90;;;;;;10865138;32;20066;-71
2022/08/15 02:51:31;;;;;;;3.95;2.17;;;26.20;55.10;;;;;;10864833;32;20430;-71
2022/08/15 02:57:34;;;;;;;2.20;1.52;;;26.20;55.20;;;;;;10864782;32;20023;-71
2022/08/15 03:03:39;;;;;;;3.37;2.10;;;26.10;55.30;;;;;;10864509;32;20042;-71
2022/08/15 03:09:41;;;;;;;3.58;2.10;;;26.10;55.40;;;;;;10864260;32;20385;-71
2022/08/15 03:15:45;;;;;;;3.80;2.47;;;26.10;55.40;;;;;;10864063;32;20050;-71
2022/08/15 03:21:48;;;;;;;2.45;1.80;;;26.10;55.50;;;;;;10863902;32;20023;-71
2022/08/15 03:27:51;;;;;;;2.05;1.65;;;26.00;55.60;;;;;;10863723;32;20012;-71
2022/08/15 03:33:54;;;;;;;4.25;2.22;;;25.80;56.10;;;;;;10863587;32;20020;-72
2022/08/15 03:39:57;;;;;;;2.83;2.10;;;25.80;56.30;;;;;;10863393;32;20028;-71
2022/08/15 03:46:06;;;;;;;3.03;2.37;;;25.80;56.40;;;;;;10863270;32;20089;-72
2022/08/15 03:52:09;;;;;;;3.83;1.90;;;25.70;56.60;;;;;;10863048;32;20331;-71
2022/08/15 03:58:15;;;;;;;3.17;2.33;;;25.70;56.60;;;;;;10862915;32;20020;-71
2022/08/15 04:04:18;;;;;;;6.45;2.03;;;25.70;56.60;;;;;;10862802;32;20023;-71
2022/08/15 04:10:21;;;;;;;3.00;2.03;;;25.70;56.80;;;;;;10862482;32;20027;-71
2022/08/15 04:16:23;;;;;;;3.87;2.20;;;25.60;57.10;;;;;;10833941;32;20047;-71
2022/08/15 04:22:39;;;;;;;4.45;2.67;;;25.60;57.00;;;;;;10825430;32;20430;-72
2022/08/15 04:28:43;;;;;;;3.15;2.33;;;25.60;56.90;;;;;;10860192;27;20061;-72
2022/08/15 04:41:11;;;;;;;3.12;1.98;;;25.60;57.10;;;;;;10899123;32;20042;-71
2022/08/15 04:47:14;;;;;;;3.95;2.53;;;25.50;57.30;;;;;;10898946;32;20019;-71
2022/08/15 04:53:18;;;;;;;4.37;2.65;;;25.40;57.40;;;;;;10898713;32;20380;-72
2022/08/15 04:59:21;;;;;;;2.78;1.87;;;25.40;57.60;;;;;;10898590;32;20089;-71
2022/08/15 05:05:23;;;;;;;2.70;2.05;;;25.50;57.50;;;;;;10898601;32;20019;-71
2022/08/15 05:11:26;;;;;;;3.55;2.20;;;25.60;57.40;;;;;;10898175;32;20031;-71
2022/08/15 05:17:29;;;;;;;3.08;1.80;;;25.70;57.30;;;;;;10898232;32;20015;-71
2022/08/15 05:23:33;;;;;;;2.62;1.70;;;25.70;57.10;;;;;;10884924;32;20041;-71
2022/08/15 05:29:36;;;;;;;2.72;1.83;;;25.70;57.50;;;;;;10897777;32;20023;-71
2022/08/15 05:35:41;;;;;;;3.00;1.58;;;25.70;57.40;;;;;;10896809;32;20344;-72
2022/08/15 05:41:48;;;;;;;3.75;2.17;;;25.80;57.20;;;;;;10897591;32;20019;-71
2022/08/15 05:48:05;;;;;;;3.40;1.90;;;25.80;56.90;;;;;;10903968;32;20023;-71
2022/08/15 05:54:28;;;;;;;;;;;25.80;57.00;;;;;;10904142;32;20058;-71
2022/08/15 06:00:32;;;;;;;2.05;1.48;;;25.80;57.10;;;;;;10903544;32;19992;-71
2022/08/15 06:06:38;;;;;;;4.05;2.72;;;25.80;57.20;;;;;;10903530;32;20015;-71
2022/08/15 06:12:47;;;;;;;2.80;1.98;;;25.80;57.10;;;;;;10903176;32;20054;-71
2022/08/15 06:18:50;;;;;;;2.40;1.92;;;25.80;57.00;;;;;;10903208;32;20023;-72
2022/08/15 06:25:06;;;;;;;2.30;1.75;;;25.90;56.90;;;;;;10902915;32;20045;-71
2022/08/15 06:31:09;;;;;;;2.97;1.80;;;25.90;57.00;;;;;;10902756;32;20392;-71
2022/08/15 06:37:27;;;;;;;2.12;1.77;;;25.90;57.10;;;;;;10902568;32;20333;-71
2022/08/15 06:43:31;;;;;;;2.12;1.42;;;25.90;57.00;;;;;;10902373;32;20054;-71
2022/08/15 06:49:45;;;;;;;2.05;1.55;;;26.00;56.90;;;;;;10902230;32;20020;-72
2022/08/15 06:55:59;;;;;;;1.65;1.25;;;26.00;56.90;;;;;;10901459;32;20050;-71
2022/08/15 07:02:23;;;;;;;3.00;1.70;;;26.10;56.70;;;;;;10901894;32;20055;-71
2022/08/15 07:08:50;;;;;;;2.92;1.45;;;26.20;56.60;;;;;;10901719;32;20024;-71
2022/08/15 07:15:16;;;;;;;2.35;1.75;;;26.30;56.70;;;;;;10888218;32;20023;-71
2022/08/15 07:21:22;;;;;;;2.55;1.70;;;26.30;56.70;;;;;;10901369;32;20332;-71
2022/08/15 07:27:31;;;;;;;1.17;1.08;;;26.30;56.60;;;;;;10900818;32;20015;-72
2022/08/15 07:33:42;;;;;;;2.08;1.60;;;26.50;56.50;;;;;;10888857;32;20327;-72
2022/08/15 07:40:31;;;;;;;2.70;1.77;;;26.60;56.40;;;;;;10860115;32;20027;-69
2022/08/15 07:46:40;;;;;;;3.10;2.08;;;26.80;56.40;;;;;;10862069;32;20344;-71
2022/08/15 07:52:55;;;;;;;3.83;2.15;;;27.00;56.30;;;;;;10862675;32;20023;-70
2022/08/15 07:59:30;;;;;;;3.33;2.15;;;27.00;56.50;;;;;;10863060;32;20028;-70
2022/08/15 08:05:55;;;;;;;7.28;2.30;;;27.30;56.50;;;;;;10898270;32;20023;-70
2022/08/15 08:12:07;;;;;;;3.87;2.30;;;27.60;56.10;;;;;;10901348;32;20035;-71
2022/08/15 08:18:43;;;;;;;3.15;1.50;;;27.80;56.00;;;;;;10901038;32;20332;-72
2022/08/15 08:25:42;;;;;;;3.00;2.08;;;27.90;55.80;;;;;;10899166;32;20042;-72
2022/08/15 08:32:03;;;;;;;5.90;2.12;;;28.00;55.50;;;;;;10822199;32;20032;-71
2022/08/15 08:38:30;;;;;;;1.80;1.25;;;28.10;55.50;;;;;;10813009;32;20025;-72
2022/08/15 08:44:55;;;;;;;3.03;1.92;;;28.20;55.60;;;;;;10747395;33;20012;-71
2022/08/15 08:51:33;;;;;;;4.15;2.15;;;28.30;55.80;;;;;;10664171;32;20350;-71
2022/08/15 08:57:46;;;;;;;2.67;1.58;;;28.30;56.00;;;;;;10674433;32;20025;-72
2022/08/15 09:04:00;;;;;;;2.37;1.27;;;28.50;56.30;;;;;;10731731;33;20025;-72
2022/08/15 09:10:07;;;;;;;4.28;3.15;;;28.60;55.90;;;;;;10783922;33;20024;-71
2022/08/15 09:16:30;;;;;;;3.47;2.70;;;28.90;55.90;;;;;;10772078;33;20035;-71
2022/08/15 09:22:33;;;;;;;2.92;2.45;;;29.10;56.10;;;;;;10790144;33;20020;-72
2022/08/15 09:28:42;;;;;;;2.87;1.75;;;29.10;56.30;;;;;;10859031;32;20015;-73
2022/08/15 09:34:48;;;;;;;3.50;1.52;;;29.10;56.30;;;;;;10866898;32;20023;-72
2022/08/15 09:41:20;;;;;;;4.68;2.65;;;29.30;56.10;;;;;;10862810;32;20054;-72
2022/08/15 09:47:44;;;;;;;2.83;2.00;;;29.50;55.70;;;;;;10862580;32;20032;-71
2022/08/15 09:54:18;;;;;;;2.47;2.15;;;29.70;55.40;;;;;;10902854;32;20035;-72
2022/08/15 10:00:24;;;;;;;3.65;1.90;;;29.90;55.20;;;;;;10830043;32;20058;-72
2022/08/15 10:06:30;;;;;;;5.43;2.62;;;29.60;55.40;;;;;;10795542;32;20028;-71
2022/08/15 10:12:37;;;;;;;2.27;1.80;;;29.70;55.00;;;;;;10789847;32;20405;-72
2022/08/15 10:18:39;;;;;;;3.62;2.35;;;29.60;54.80;;;;;;10791070;33;20346;-71
2022/08/15 10:24:41;;;;;;;3.55;2.20;;;29.70;54.70;;;;;;10791961;33;20047;-72
2022/08/15 10:30:51;;;;;;;2.30;1.80;;;29.90;54.10;;;;;;10728419;33;20047;-72
2022/08/15 10:37:09;;;;;;;2.20;1.73;;;30.20;53.60;;;;;;10840382;32;20020;-73
2022/08/15 10:43:27;;;;;;;2.58;1.48;;;30.50;53.00;;;;;;10852050;32;20062;-72
2022/08/15 10:50:04;;;;;;;3.30;2.35;;;30.60;52.70;;;;;;10864864;32;20020;-72
2022/08/15 10:56:08;;;;;;;;;;;31.00;51.80;;;;;;10863196;32;20044;-72
2022/08/15 11:02:42;;;;;;;4.40;2.28;;;31.20;51.10;;;;;;10863282;32;19926;-71
2022/08/15 11:09:08;;;;;;;6.10;2.35;;;31.30;50.60;;;;;;10678761;33;20025;-73
2022/08/15 11:15:28;;;;;;;5.57;2.20;;;31.40;50.10;;;;;;10671007;33;20076;-72
2022/08/15 11:21:42;;;;;;;1.80;1.50;;;31.60;49.70;;;;;;10673986;33;20029;-72
2022/08/15 11:28:03;;;;;;;2.92;2.33;;;32.00;49.10;;;;;;10675195;33;20041;-73
2022/08/15 11:34:29;;;;;;;2.97;1.62;;;32.30;47.90;;;;;;10661196;33;20429;-72
2022/08/15 11:40:38;;;;;;;3.53;2.12;;;32.50;47.40;;;;;;10676755;33;20068;-72
2022/08/15 11:46:46;;;;;;;1.90;1.42;;;32.60;46.70;;;;;;10849534;32;20082;-72
2022/08/15 11:52:51;;;;;;;3.12;2.08;;;32.70;46.60;;;;;;10861243;32;20332;-71
2022/08/15 11:58:54;;;;;;;3.90;2.20;;;32.90;46.10;;;;;;10861736;32;20437;-72
2022/08/15 12:05:07;;;;;;;3.33;1.90;;;32.60;46.20;;;;;;10862798;32;20050;-72
2022/08/15 12:11:12;;;;;;;2.35;1.92;;;32.60;45.80;;;;;;10845593;32;20379;-71
2022/08/15 12:17:26;;;;;;;3.30;2.20;;;32.50;45.50;;;;;;10861537;32;20027;-72
2022/08/15 12:23:30;;;;;;;3.20;2.37;;;32.60;45.10;;;;;;10845292;32;20016;-71
2022/08/15 12:29:33;;;;;;;4.15;1.60;;;32.90;44.50;;;;;;10886271;27;20070;-72
2022/08/15 12:35:36;;;;;;;4.43;2.25;;;33.10;44.10;;;;;;10899222;32;20035;-71
2022/08/15 12:41:41;;;;;;;2.78;1.77;;;33.10;43.60;;;;;;10899260;32;20030;-72
2022/08/15 12:47:45;;;;;;;3.20;1.62;;;33.20;43.20;;;;;;10899284;32;20433;-72
2022/08/15 12:53:48;;;;;;;2.17;1.77;;;33.30;43.30;;;;;;10898603;32;20392;-72
2022/08/15 12:59:50;;;;;;;3.15;2.30;;;33.00;43.50;;;;;;10885583;32;20035;-72
2022/08/15 13:06:07;;;;;;;2.55;1.85;;;32.60;44.00;;;;;;10897305;32;20023;-72
2022/08/15 13:12:10;;;;;;;2.47;1.77;;;32.50;44.30;;;;;;10898329;32;20043;-73
2022/08/15 13:18:19;;;;;;;2.53;1.98;;;32.40;44.00;;;;;;10882238;32;20078;-72
2022/08/15 13:24:22;;;;;;;2.55;1.92;;;32.60;44.00;;;;;;10898151;32;20062;-72
2022/08/15 13:30:24;;;;;;;5.18;3.12;;;32.80;43.80;;;;;;10897952;32;20015;-71
2022/08/15 13:36:28;;;;;;;3.75;2.37;;;32.80;44.00;;;;;;10897893;32;20058;-72
2022/08/15 13:42:31;;;;;;;13.85;3.37;;;32.60;45.10;;;;;;10897797;32;20034;-71
2022/08/15 13:48:41;;;;;;;8.55;2.40;;;32.60;45.00;;;;;;10893116;32;20057;-73
2022/08/15 13:54:44;;;;;;;4.70;2.55;;;32.60;44.90;;;;;;10897209;32;20054;-72
2022/08/15 14:00:47;;;;;;;3.10;2.17;;;32.40;45.30;;;;;;10897287;32;20019;-72
2022/08/15 14:06:51;;;;;;;4.78;2.90;;;32.20;46.40;;;;;;10900392;32;20305;-71
2022/08/15 14:12:54;;;;;;;4.78;3.47;;;32.20;46.80;;;;;;10903240;32;20011;-72
2022/08/15 14:18:57;;;;;;;7.15;2.58;;;32.50;46.80;;;;;;10903066;32;20023;-72
2022/08/15 14:24:59;;;;;;;8.00;3.03;;;32.40;46.80;;;;;;10902376;32;20410;-71
2022/08/15 14:31:03;;;;;;;4.40;3.25;;;32.70;46.60;;;;;;10899038;32;20482;-71
2022/08/15 14:37:08;;;;;;;6.85;2.83;;;32.80;46.50;;;;;;10902378;32;20392;-72
2022/08/15 14:43:14;;;;;;;3.58;2.20;;;32.70;46.60;;;;;;10898132;32;20020;-72
2022/08/15 14:49:16;;;;;;;3.90;2.83;;;32.70;46.60;;;;;;10902095;32;20019;-71
2022/08/15 14:55:19;;;;;;;3.78;2.28;;;32.80;46.50;;;;;;10897776;32;20049;-71
2022/08/15 15:01:22;;;;;;;4.47;2.37;;;32.60;46.60;;;;;;10901327;32;20051;-71
2022/08/15 15:07:29;;;;;;;5.37;2.62;;;32.70;46.50;;;;;;10901232;32;20308;-72
2022/08/15 15:13:32;;;;;;;9.30;2.90;;;32.90;46.30;;;;;;10901320;32;20019;-71
2022/08/15 15:19:35;;;;;;;2.78;2.22;;;33.10;45.80;;;;;;10896384;32;20045;-72
2022/08/15 15:25:43;;;;;;;5.07;2.37;;;33.10;45.70;;;;;;10864747;32;20023;-72
2022/08/15 15:31:46;;;;;;;6.15;2.47;;;33.30;45.50;;;;;;10863346;32;20050;-71
2022/08/15 15:37:48;;;;;;;2.83;2.17;;;33.30;45.30;;;;;;10862646;32;20055;-72
2022/08/15 15:43:50;;;;;;;7.60;2.55;;;33.30;45.30;;;;;;10858738;32;20320;-71
2022/08/15 15:49:53;;;;;;;5.85;2.42;;;33.30;45.00;;;;;;10858082;32;20335;-72
2022/08/15 15:55:59;;;;;;;11.07;2.67;;;33.30;45.20;;;;;;10860917;32;20027;-72
2022/08/15 16:02:02;;;;;;;5.37;2.17;;;33.30;44.80;;;;;;10862283;32;20031;-72
2022/08/15 16:08:04;;;;;;;3.28;2.00;;;33.40;44.80;;;;;;10862030;32;20047;-72
2022/08/15 16:14:15;;;;;;;3.60;2.35;;;33.40;44.90;;;;;;10861632;32;20019;-72
2022/08/15 16:20:27;;;;;;;3.30;2.42;;;33.20;45.10;;;;;;10860772;32;20054;-73
2022/08/15 16:26:35;;;;;;;6.18;2.62;;;32.90;45.30;;;;;;10861531;32;20309;-72
2022/08/15 16:32:44;;;;;;;3.08;2.37;;;32.90;45.50;;;;;;10857548;32;20039;-71
2022/08/15 16:38:52;;;;;;;2.75;1.87;;;32.90;45.40;;;;;;10861775;32;20050;-72
2022/08/15 16:44:55;;;;;;;3.62;2.67;;;32.90;45.60;;;;;;10860534;32;20339;-72
2022/08/15 16:51:13;;;;;;;7.12;2.50;;;33.00;45.40;;;;;;10856824;32;20038;-73
2022/08/15 16:57:29;;;;;;;8.93;2.72;;;32.90;45.20;;;;;;10859573;32;20036;-72
2022/08/15 17:03:50;;;;;;;3.15;2.20;;;32.90;45.30;;;;;;10857254;32;20031;-70
2022/08/15 17:10:23;;;;;;;12.80;2.85;;;32.70;46.70;;;;;;10860760;32;20090;-70
2022/08/15 17:16:25;;;;;;;4.57;2.17;;;32.50;47.50;;;;;;10859810;32;20069;-70
2022/08/15 17:22:36;;;;;;;5.65;2.65;;;32.40;47.80;;;;;;10859549;32;20392;-70
2022/08/15 17:28:40;;;;;;;4.50;3.00;;;32.30;48.30;;;;;;10860859;32;20020;-72
2022/08/15 17:34:46;;;;;;;4.80;1.73;;;32.90;48.00;;;;;;10855765;32;20382;-72
2022/08/15 17:40:55;;;;;;;4.30;1.77;;;32.90;47.40;;;;;;10859647;32;20054;-72
2022/08/15 17:47:28;;;;;;;4.40;2.40;;;32.10;48.20;;;;;;10865341;32;20024;-72
2022/08/15 17:53:59;;;;;;;3.95;2.05;;;31.70;48.90;;;;;;10860482;32;20058;-72
2022/08/15 18:00:11;;;;;;;4.10;1.27;;;31.40;49.30;;;;;;10853339;32;20043;-72
2022/08/15 18:06:14;;;;;;;2.97;1.85;;;31.20;49.90;;;;;;10865341;32;20058;-72
2022/08/15 18:12:16;;;;;;;3.55;1.73;;;31.00;50.40;;;;;;10866242;32;20023;-72
2022/08/15 18:18:19;;;;;;;2.17;1.62;;;30.80;50.70;;;;;;10866028;32;20380;-71
2022/08/15 18:24:39;;;;;;;2.95;1.95;;;30.70;51.10;;;;;;10865550;32;20042;-72
2022/08/15 18:30:41;;;;;;;3.28;2.70;;;30.70;51.40;;;;;;10865248;32;20038;-72
2022/08/15 18:36:48;;;;;;;2.42;1.90;;;30.50;52.00;;;;;;10865551;32;20019;-72
2022/08/15 18:42:59;;;;;;;2.40;1.50;;;30.40;52.30;;;;;;10861849;32;20073;-72
2022/08/15 18:49:13;;;;;;;3.37;1.48;;;30.40;52.30;;;;;;10865282;32;20138;-72
2022/08/15 18:55:28;;;;;;;2.42;1.48;;;30.40;52.20;;;;;;10864233;32;20415;-72
2022/08/15 19:01:31;;;;;;;2.40;1.62;;;30.30;52.30;;;;;;10864697;32;20031;-72
2022/08/15 19:07:53;;;;;;;2.35;1.67;;;30.30;52.20;;;;;;10864609;32;20327;-72
2022/08/15 19:14:11;;;;;;;0.95;0.80;;;30.30;52.00;;;;;;10851361;32;20319;-73
2022/08/15 19:20:19;;;;;;;2.28;1.33;;;30.30;52.00;;;;;;10863674;32;20062;-72
2022/08/15 19:26:45;;;;;;;4.78;2.12;;;30.20;52.00;;;;;;10863565;32;20050;-71
2022/08/15 19:33:14;;;;;;;5.80;2.60;;;30.10;52.10;;;;;;10862970;32;20023;-71
2022/08/15 19:39:26;;;;;;;3.62;1.75;;;29.90;52.10;;;;;;10862405;32;20012;-72
2022/08/15 19:46:02;;;;;;;4.97;3.03;;;29.80;51.90;;;;;;10859275;32;20054;-72
2022/08/15 19:53:09;;;;;;;9.90;2.78;;;29.60;51.50;;;;;;10677714;33;20021;-72
2022/08/15 19:59:30;;;;;;;6.78;3.08;;;29.30;52.40;;;;;;10605536;33;20162;-73
2022/08/15 20:05:53;;;;;;;2.97;1.73;;;29.00;53.80;;;;;;10601871;33;20215;-71
2022/08/15 20:12:24;;;;;;;5.30;2.62;;;28.80;54.80;;;;;;10602856;33;20029;-73
2022/08/15 20:18:34;;;;;;;3.47;2.10;;;28.70;54.80;;;;;;10593296;33;20068;-73
2022/08/15 20:24:40;;;;;;;6.95;3.28;;;28.50;56.10;;;;;;10621556;33;20059;-73
2022/08/15 20:31:04;;;;;;;3.33;1.50;;;28.20;56.90;;;;;;10288282;27;19160082;-73
2022/08/15 20:37:12;;;;;;;4.37;2.62;;;28.10;56.80;;;;;;11013637;32;20026;-72
2022/08/15 20:43:26;;;;;;;3.97;2.40;;;27.70;56.90;;;;;;10995543;32;20034;-73
2022/08/15 20:49:34;;;;;;;4.50;2.00;;;27.30;57.80;;;;;;11014102;32;20030;-74
2022/08/15 20:55:41;;;;;;;3.37;1.95;;;27.10;58.00;;;;;;11013222;32;20081;-74
2022/08/15 21:02:13;;;;;;;2.40;1.20;;;26.90;59.30;;;;;;10939033;32;20059;-73
2022/08/15 21:08:26;;;;;;;3.67;2.28;;;27.00;59.10;;;;;;10861318;32;20316;-74
2022/08/15 21:14:38;;;;;;;4.82;2.03;;;27.10;59.10;;;;;;10863062;32;20062;-73
2022/08/15 21:21:02;;;;;;;2.25;1.58;;;26.70;60.50;;;;;;10867854;32;20046;-74
2022/08/15 21:27:13;;;;;;;2.78;1.67;;;26.30;61.90;;;;;;10867509;32;20050;-75
2022/08/15 21:33:40;;;;;;;2.58;1.42;;;26.20;61.20;;;;;;10865470;32;20023;-74
2022/08/15 21:39:48;;;;;;;4.47;2.85;;;26.10;60.80;;;;;;10867318;32;20024;-72
2022/08/15 21:46:05;;;;;;;5.07;2.47;;;26.30;60.70;;;;;;10867134;32;20042;-73
2022/08/15 21:52:13;;;;;;;3.17;2.10;;;26.20;62.10;;;;;;10866014;32;20409;-74
2022/08/15 21:58:36;;;;;;;3.65;2.55;;;26.20;62.00;;;;;;10866841;32;20399;-75
2022/08/15 22:04:43;;;;;;;4.18;1.83;;;26.30;62.50;;;;;;10866579;32;20046;-73
2022/08/15 22:10:46;;;;;;;4.60;2.12;;;26.10;63.40;;;;;;10866545;32;20024;-73
2022/08/15 22:16:48;;;;;;;4.55;1.77;;;26.30;62.90;;;;;;10866143;32;20039;-73
2022/08/15 22:22:50;;;;;;;4.40;2.10;;;26.30;62.30;;;;;;10865934;32;20058;-73
2022/08/15 22:28:57;;;;;;;2.12;1.37;;;26.00;62.70;;;;;;10864908;32;20042;-74
2022/08/15 22:35:00;;;;;;;3.37;2.00;;;25.80;62.90;;;;;;10865777;32;20051;-72
2022/08/15 22:41:06;;;;;;;2.20;1.23;;;25.80;62.60;;;;;;10865623;32;20028;-73
2022/08/15 22:47:09;;;;;;;5.65;2.47;;;25.80;62.10;;;;;;10865379;32;20066;-73
2022/08/15 22:53:12;;;;;;;3.28;1.80;;;25.90;62.40;;;;;;10865240;32;20019;-73
2022/08/15 22:59:20;;;;;;;2.65;1.87;;;25.80;62.80;;;;;;10865119;32;20027;-73
2022/08/15 23:05:34;;;;;;;;;;;25.80;62.40;;;;;;10865274;32;20024;-74
2022/08/15 23:11:40;;;;;;;2.75;1.52;;;25.90;62.80;;;;;;10864688;32;19949;-72
2022/08/15 23:18:11;;;;;;;0.65;0.65;;;25.80;62.80;;;;;;10864553;32;20044;-71
2022/08/15 23:24:16;;;;;;;4.80;1.77;;;25.70;63.30;;;;;;10864289;32;20024;-73
2022/08/15 23:30:23;;;;;;;4.12;2.05;;;25.40;63.40;;;;;;10864084;32;20027;-72
2022/08/15 23:36:42;;;;;;;3.13;2.07;;;25.30;63.20;;;;;;10863510;32;20027;-73
2022/08/15 23:42:54;;;;;;;2.08;1.48;;;25.40;63.00;;;;;;10863714;32;20387;-72
2022/08/15 23:48:56;;;;;;;2.60;1.37;;;25.50;62.40;;;;;;10863700;32;20011;-72
2022/08/15 23:54:58;;;;;;;4.25;2.53;;;25.40;62.10;;;;;;10863467;32;20043;-73
